Time;durP1;ratioP1;P1;durP2;ratioP2;P2;SDS_P1;SDS_P2;PMS_P1;PMS_P2;Temp;Humidity;BMP_temperature;BMP_pressure;BME280_temperature;BME280_humidity;BME280_pressure;Samples;Min_cycle;Max_cycle;Signal;HPM_P1;HPM_P2
2023/08/02 00:00:41;;;;;;;10.20;5.73;;;17.30;99.90;;;;;;4998935;28;20852;-62
2023/08/02 00:03:10;;;;;;;10.90;2.40;;;17.30;99.90;;;;;;4998674;28;20593;-63
2023/08/02 00:05:37;;;;;;;13.13;4.80;;;17.30;99.90;;;;;;5005600;28;20489;-62
2023/08/02 00:08:04;;;;;;;15.50;7.90;;;;;;;;;;5012623;28;20462;-46
2023/08/02 00:10:31;;;;;;;2.83;2.43;;;;;;;;;;5021509;28;20449;-52
2023/08/02 00:12:58;;;;;;;4.53;2.77;;;17.00;99.90;;;;;;5001288;28;20451;-63
2023/08/02 00:15:26;;;;;;;2.50;2.20;;;17.10;99.90;;;;;;5013588;28;20453;-44
2023/08/02 00:17:53;;;;;;;2.77;2.30;;;16.90;99.90;;;;;;5041062;28;20405;-51
2023/08/02 00:20:21;;;;;;;2.30;2.10;;;16.80;99.90;;;;;;5039310;28;20445;-57
2023/08/02 00:22:48;;;;;;;6.40;2.00;;;;;;;;;;5027819;28;20794;-62
2023/08/02 00:25:15;;;;;;;2.57;2.20;;;;;;;;;;5018101;28;20452;-62
2023/08/02 00:27:43;;;;;;;3.30;2.60;;;17.20;99.90;;;;;;5018116;28;20840;-63
2023/08/02 00:30:11;;;;;;;7.50;2.30;;;17.20;99.90;;;;;;5017568;28;21005;-63
2023/08/02 00:32:44;;;;;;;4.90;2.30;;;17.10;99.90;;;;;;5017100;28;20474;-62
2023/08/02 00:35:11;;;;;;;5.40;2.20;;;16.90;99.90;;;;;;5017106;28;20429;-61
2023/08/02 00:37:39;;;;;;;2.40;2.20;;;17.10;99.90;;;;;;5032406;28;20516;-49
2023/08/02 00:40:10;;;;;;;3.67;2.57;;;17.60;99.90;;;;;;5036646;28;20433;-59
2023/08/02 00:42:37;;;;;;;4.83;2.30;;;17.10;99.90;;;;;;5036443;28;20486;-59
2023/08/02 00:45:05;;;;;;;2.07;1.87;;;17.10;99.90;;;;;;5029830;28;20550;-59
2023/08/02 00:47:32;;;;;;;3.30;1.97;;;17.40;99.90;;;;;;5015885;28;20429;-57
2023/08/02 00:50:00;;;;;;;3.40;2.10;;;16.70;99.90;;;;;;5016921;28;20498;-60
2023/08/02 00:52:27;;;;;;;3.27;2.00;;;;;;;;;;4999822;28;20513;-61
2023/08/02 00:54:58;;;;;;;3.47;2.10;;;17.10;99.90;;;;;;4997327;28;20533;-58
2023/08/02 00:57:25;;;;;;;2.57;2.20;;;16.80;99.90;;;;;;4997002;28;20971;-64
2023/08/02 00:59:51;;;;;;;2.43;2.23;;;16.10;99.90;;;;;;4997317;28;20533;-62
2023/08/02 01:02:18;;;;;;;2.47;2.10;;;16.90;99.90;;;;;;4996835;28;20506;-62
2023/08/02 01:04:46;;;;;;;4.70;1.90;;;;;;;;;;4997051;28;20513;-62
2023/08/02 01:07:21;;;;;;;2.67;1.83;;;16.70;99.90;;;;;;5009031;28;20486;-62
2023/08/02 01:10:03;;;;;;;4.60;2.20;;;16.70;99.90;;;;;;5001512;28;20523;-47
2023/08/02 01:12:32;;;;;;;3.10;2.63;;;16.90;99.90;;;;;;5005414;28;20438;-61
2023/08/02 01:15:02;;;;;;;2.70;2.10;;;16.90;99.90;;;;;;4998468;28;20481;-46
2023/08/02 01:17:32;;;;;;;3.47;2.30;;;16.90;99.90;;;;;;5020135;28;20426;-53
2023/08/02 01:20:03;;;;;;;2.93;1.57;;;17.00;99.90;;;;;;5020109;28;20419;-48
2023/08/02 01:22:32;;;;;;;6.70;3.13;;;16.90;99.90;;;;;;5008123;28;20410;-49
2023/08/02 01:25:00;;;;;;;10.33;4.77;;;17.10;99.90;;;;;;5017202;28;20414;-63
2023/08/02 01:27:33;;;;;;;2.43;2.23;;;16.90;99.90;;;;;;4996310;28;20556;-62
2023/08/02 01:30:02;;;;;;;5.57;2.57;;;16.70;99.90;;;;;;4996583;28;20522;-63
2023/08/02 01:32:29;;;;;;;4.90;2.50;;;16.80;99.90;;;;;;4996177;28;20473;-61
2023/08/02 01:34:56;;;;;;;2.73;1.90;;;;;;;;;;4997565;28;20464;-51
2023/08/02 01:37:25;;;;;;;3.47;1.90;;;16.80;99.90;;;;;;5019683;28;20426;-51
2023/08/02 01:39:52;;;;;;;4.53;2.87;;;;;;;;;;5017061;28;20449;-60
2023/08/02 01:42:21;;;;;;;6.10;2.57;;;16.90;99.90;;;;;;5015977;28;20461;-59
2023/08/02 01:44:48;;;;;;;4.60;2.13;;;16.60;99.90;;;;;;5004702;28;20556;-61
2023/08/02 01:47:17;;;;;;;3.13;2.30;;;17.00;99.90;;;;;;5015728;28;20480;-59
2023/08/02 01:49:44;;;;;;;6.60;2.47;;;17.20;99.90;;;;;;5015608;28;20792;-59
2023/08/02 01:52:12;;;;;;;2.97;1.90;;;17.20;99.90;;;;;;5025670;28;20449;-49
2023/08/02 01:54:41;;;;;;;2.83;2.00;;;16.90;99.90;;;;;;5038920;28;20607;-46
2023/08/02 01:57:10;;;;;;;3.53;1.83;;;16.80;99.90;;;;;;5018167;28;20551;-63
2023/08/02 01:59:40;;;;;;;2.77;1.80;;;16.90;99.90;;;;;;5015158;28;20449;-60
2023/08/02 02:02:08;;;;;;;3.27;2.30;;;;;;;;;;5015666;28;20477;-62
2023/08/02 02:04:35;;;;;;;11.03;2.63;;;;;;;;;;5016810;28;21022;-61
2023/08/02 02:07:02;;;;;;;5.93;2.87;;;16.60;99.90;;;;;;5018127;28;20474;-62
2023/08/02 02:09:29;;;;;;;2.60;2.40;;;;;;;;;;5017682;28;20504;-63
2023/08/02 02:11:57;;;;;;;5.00;2.53;;;16.80;99.90;;;;;;5018000;28;20445;-62
2023/08/02 02:14:24;;;;;;;3.53;2.43;;;;;;;;;;5019803;28;20445;-63
2023/08/02 02:16:51;;;;;;;5.57;2.37;;;16.90;99.90;;;;;;5028490;28;20484;-62
2023/08/02 02:19:20;;;;;;;4.60;2.37;;;17.00;99.90;;;;;;5028802;28;20440;-60
2023/08/02 02:21:47;;;;;;;3.17;2.60;;;16.90;99.90;;;;;;5017716;28;20461;-62
2023/08/02 02:24:13;;;;;;;4.50;1.97;;;17.00;99.90;;;;;;5033660;28;20469;-52
2023/08/02 02:26:40;;;;;;;3.20;2.10;;;16.90;99.90;;;;;;5035741;28;20452;-59
2023/08/02 02:29:08;;;;;;;2.97;2.10;;;17.00;99.90;;;;;;5034774;28;20460;-60
2023/08/02 02:31:36;;;;;;;3.33;2.40;;;;;;;;;;5020549;28;20981;-62
2023/08/02 02:34:03;;;;;;;2.90;2.23;;;;;;;;;;5014950;28;20520;-60
2023/08/02 02:36:30;;;;;;;4.37;2.63;;;;;;;;;;5015109;28;20507;-62
2023/08/02 02:38:57;;;;;;;2.27;2.07;;;;;;;;;;5014958;28;20476;-59
2023/08/02 02:41:24;;;;;;;3.40;2.90;;;;;;;;;;5014722;28;20984;-63
2023/08/02 02:43:51;;;;;;;3.63;2.80;;;16.70;99.90;;;;;;5014851;28;20575;-61
2023/08/02 02:46:19;;;;;;;3.37;2.47;;;16.70;99.90;;;;;;5015296;28;20556;-61
2023/08/02 02:48:46;;;;;;;3.73;3.07;;;16.80;99.90;;;;;;5016057;28;20476;-62
2023/08/02 02:51:13;;;;;;;5.47;2.90;;;17.70;99.90;;;;;;5018409;28;20480;-61
2023/08/02 02:53:40;;;;;;;2.80;2.37;;;16.80;99.90;;;;;;5016090;28;20511;-63
2023/08/02 02:56:07;;;;;;;6.00;2.63;;;;;;;;;;5014616;28;20487;-60
2023/08/02 02:58:34;;;;;;;3.00;2.13;;;16.70;99.90;;;;;;5014378;28;20513;-62
2023/08/02 03:01:04;;;;;;;4.50;2.50;;;16.90;99.90;;;;;;5022451;28;20456;-51
2023/08/02 03:03:34;;;;;;;2.57;2.37;;;16.70;99.90;;;;;;5038078;28;20457;-50
2023/08/02 03:06:02;;;;;;;2.50;1.77;;;16.70;99.90;;;;;;5016319;28;20759;-61
2023/08/02 03:08:30;;;;;;;4.20;2.40;;;16.70;99.90;;;;;;5016555;28;20524;-60
2023/08/02 03:10:57;;;;;;;5.20;2.37;;;17.10;99.90;;;;;;5019511;28;20530;-60
2023/08/02 03:13:24;;;;;;;2.43;2.23;;;;;;;;;;5023292;28;20480;-62
2023/08/02 03:15:51;;;;;;;3.20;2.43;;;16.70;99.90;;;;;;5025038;28;20472;-62
2023/08/02 03:18:18;;;;;;;4.53;2.90;;;16.40;99.90;;;;;;5027902;28;20504;-61
2023/08/02 03:20:46;;;;;;;5.03;2.40;;;16.60;99.90;;;;;;5019513;28;20857;-61
2023/08/02 03:23:13;;;;;;;3.00;2.40;;;16.80;99.90;;;;;;5040031;28;20469;-58
2023/08/02 03:25:40;;;;;;;8.60;2.70;;;;;;;;;;5039027;28;20488;-60
2023/08/02 03:28:07;;;;;;;3.20;2.70;;;;;;;;;;5018549;28;20552;-61
2023/08/02 03:30:38;;;;;;;4.17;2.80;;;16.70;99.90;;;;;;5021152;28;20536;-51
2023/08/02 03:33:05;;;;;;;3.80;2.57;;;16.50;99.90;;;;;;5039863;28;20428;-61
2023/08/02 03:35:32;;;;;;;3.90;2.80;;;16.70;99.90;;;;;;5038205;28;20941;-61
2023/08/02 03:38:00;;;;;;;6.93;2.70;;;16.20;99.90;;;;;;5023664;28;20537;-61
2023/08/02 03:40:28;;;;;;;2.93;2.20;;;16.60;99.90;;;;;;5019484;28;20846;-49
2023/08/02 03:42:55;;;;;;;5.00;2.60;;;16.50;99.90;;;;;;5041344;28;20417;-51
2023/08/02 03:45:22;;;;;;;3.63;2.60;;;;;;;;;;5039846;28;20489;-63
2023/08/02 03:47:50;;;;;;;6.00;2.77;;;;;;;;;;5017712;28;20513;-60
2023/08/02 03:50:17;;;;;;;3.77;2.67;;;16.50;99.90;;;;;;5017643;28;20523;-64
2023/08/02 03:52:43;;;;;;;4.33;3.17;;;16.90;99.90;;;;;;5017915;28;20432;-59
2023/08/02 03:55:12;;;;;;;3.90;1.97;;;16.40;99.90;;;;;;5018135;28;20520;-63
2023/08/02 03:57:39;;;;;;;3.70;2.60;;;16.70;99.90;;;;;;5018316;28;20476;-60
2023/08/02 04:00:07;;;;;;;4.77;2.93;;;16.60;99.90;;;;;;5017941;28;20484;-64
2023/08/02 04:02:35;;;;;;;2.60;2.40;;;16.90;99.90;;;;;;5019257;28;20539;-63
2023/08/02 04:05:02;;;;;;;3.30;2.67;;;16.90;99.90;;;;;;5024431;28;20539;-61
2023/08/02 04:07:28;;;;;;;3.30;2.43;;;16.70;99.90;;;;;;5018008;28;20499;-62
2023/08/02 04:09:55;;;;;;;3.77;2.70;;;16.80;99.90;;;;;;5017588;28;20602;-62
2023/08/02 04:12:23;;;;;;;4.23;3.20;;;17.60;99.90;;;;;;5017088;28;21041;-62
2023/08/02 04:14:51;;;;;;;3.80;2.90;;;;;;;;;;5040939;28;20410;-44
2023/08/02 04:17:17;;;;;;;6.33;2.77;;;16.50;99.90;;;;;;5033100;28;20448;-60
2023/08/02 04:19:44;;;;;;;2.97;2.67;;;17.40;99.90;;;;;;5031618;28;20440;-58
2023/08/02 04:22:14;;;;;;;3.30;2.40;;;17.40;99.90;;;;;;5031222;28;20480;-62
2023/08/02 04:24:41;;;;;;;3.70;2.80;;;;;;;;;;5029683;28;20522;-60
2023/08/02 04:27:08;;;;;;;3.47;2.70;;;17.20;99.90;;;;;;5017339;28;20825;-61
2023/08/02 04:29:36;;;;;;;3.90;3.00;;;17.00;99.90;;;;;;5016890;28;20451;-60
2023/08/02 04:32:03;;;;;;;3.77;2.60;;;17.00;99.90;;;;;;5017046;28;20473;-62
2023/08/02 04:34:30;;;;;;;4.53;2.80;;;17.10;99.90;;;;;;5017105;28;20480;-63
2023/08/02 04:36:56;;;;;;;2.90;2.60;;;16.90;99.90;;;;;;5028895;28;20469;-47
2023/08/02 04:39:23;;;;;;;4.20;2.70;;;17.00;99.90;;;;;;5040568;28;20425;-43
2023/08/02 04:41:52;;;;;;;4.80;3.20;;;17.10;99.90;;;;;;5035121;28;20457;-51
2023/08/02 04:44:20;;;;;;;3.60;2.97;;;;;;;;;;5037999;28;20592;-62
2023/08/02 04:46:52;;;;;;;4.07;3.10;;;16.90;99.90;;;;;;5037407;28;20433;-61
2023/08/02 04:49:21;;;;;;;3.53;2.77;;;17.40;99.90;;;;;;5037169;28;20495;-58
2023/08/02 04:51:48;;;;;;;4.80;3.17;;;16.60;99.90;;;;;;5037640;28;20425;-61
2023/08/02 04:54:14;;;;;;;3.80;2.90;;;17.00;99.90;;;;;;5036749;28;20496;-58
2023/08/02 04:56:41;;;;;;;4.47;2.53;;;17.30;99.90;;;;;;5036929;28;20465;-59
2023/08/02 04:59:10;;;;;;;12.13;3.40;;;17.00;99.90;;;;;;5027657;28;20457;-63
2023/08/02 05:01:36;;;;;;;4.80;3.13;;;17.30;99.90;;;;;;5016671;28;20548;-63
2023/08/02 05:04:07;;;;;;;2.70;2.33;;;16.90;99.90;;;;;;5016718;28;20886;-65
2023/08/02 05:06:34;;;;;;;5.13;2.97;;;16.90;99.90;;;;;;5016323;28;20932;-60
2023/08/02 05:09:04;;;;;;;3.80;2.83;;;;;;;;;;5016392;28;20913;-60
2023/08/02 05:11:31;;;;;;;8.33;2.80;;;17.20;99.90;;;;;;5016651;28;20532;-63
2023/08/02 05:13:58;;;;;;;4.53;2.87;;;17.00;99.90;;;;;;5003750;28;20541;-61
2023/08/02 05:16:26;;;;;;;6.30;3.13;;;;;;;;;;4996894;28;20442;-62
2023/08/02 05:18:52;;;;;;;2.50;2.20;;;17.00;99.90;;;;;;4996490;28;20498;-59
2023/08/02 05:21:23;;;;;;;4.93;2.37;;;17.10;99.90;;;;;;4996511;28;20518;-63
2023/08/02 05:23:50;;;;;;;6.77;2.60;;;17.30;99.90;;;;;;4996433;28;20450;-62
2023/08/02 05:26:17;;;;;;;4.90;2.70;;;;;;;;;;4996829;28;20529;-62
2023/08/02 05:28:44;;;;;;;5.83;3.00;;;;;;;;;;4999968;28;20537;-47
2023/08/02 05:31:11;;;;;;;5.50;3.00;;;;;;;;;;5019808;28;20442;-45
2023/08/02 05:33:38;;;;;;;6.07;2.70;;;17.40;99.90;;;;;;5018989;28;20422;-58
2023/08/02 05:36:06;;;;;;;8.50;2.63;;;17.30;99.90;;;;;;5016122;28;20472;-58
2023/08/02 05:38:38;;;;;;;3.43;2.73;;;17.40;99.90;;;;;;5016808;28;20481;-55
2023/08/02 05:41:05;;;;;;;5.23;2.47;;;17.30;99.90;;;;;;4998545;28;20430;-61
2023/08/02 05:43:32;;;;;;;4.20;2.13;;;;;;;;;;5027842;28;20453;-47
2023/08/02 05:45:59;;;;;;;3.20;2.30;;;;;;;;;;5038423;28;20488;-59
2023/08/02 05:48:27;;;;;;;9.73;2.57;;;17.40;99.90;;;;;;5017563;28;20573;-63
2023/08/02 05:50:53;;;;;;;6.40;3.00;;;17.70;99.90;;;;;;5015790;28;20452;-62
2023/08/02 05:53:20;;;;;;;2.27;1.70;;;17.90;99.90;;;;;;5016168;28;20441;-62
2023/08/02 05:55:48;;;;;;;2.80;2.50;;;17.90;99.90;;;;;;5018037;28;20522;-62
2023/08/02 05:58:16;;;;;;;2.37;2.17;;;;;;;;;;5015436;28;20540;-62
2023/08/02 06:00:43;;;;;;;2.63;2.20;;;17.90;99.90;;;;;;5015415;28;20460;-61
2023/08/02 06:03:10;;;;;;;4.40;2.83;;;18.00;99.90;;;;;;5014189;28;20797;-62
2023/08/02 06:05:37;;;;;;;2.30;1.73;;;;;;;;;;5015557;28;20508;-64
2023/08/02 06:08:05;;;;;;;7.47;2.70;;;18.20;99.90;;;;;;5015517;28;20491;-62
2023/08/02 06:10:32;;;;;;;5.00;2.10;;;;;;;;;;5015358;28;20531;-59
2023/08/02 06:13:00;;;;;;;5.20;2.60;;;18.20;99.90;;;;;;5014648;28;20485;-62
2023/08/02 06:15:28;;;;;;;4.20;2.87;;;;;;;;;;5015635;28;20492;-64
2023/08/02 06:17:55;;;;;;;3.97;2.30;;;18.30;99.90;;;;;;5014762;28;20557;-63
2023/08/02 06:20:23;;;;;;;3.70;2.47;;;;;;;;;;5015707;28;20433;-62
2023/08/02 06:22:49;;;;;;;5.73;2.90;;;18.30;99.90;;;;;;5015323;28;20517;-62
2023/08/02 06:25:18;;;;;;;4.47;2.03;;;18.40;99.90;;;;;;5017361;28;20523;-62
2023/08/02 06:27:45;;;;;;;3.63;2.23;;;;;;;;;;5013466;28;20540;-61
2023/08/02 06:30:14;;;;;;;2.73;1.90;;;18.40;99.90;;;;;;5015193;28;20763;-61
2023/08/02 06:32:41;;;;;;;3.37;2.10;;;18.60;99.90;;;;;;5026577;28;20451;-60
2023/08/02 06:35:09;;;;;;;4.70;2.50;;;18.60;99.90;;;;;;5032281;28;20473;-54
2023/08/02 06:37:36;;;;;;;7.53;2.40;;;;;;;;;;5020925;28;20495;-64
2023/08/02 06:40:04;;;;;;;2.90;2.00;;;18.80;99.90;;;;;;5014744;28;20498;-63
2023/08/02 06:42:33;;;;;;;15.57;2.67;;;18.70;99.90;;;;;;5024309;28;20433;-58
2023/08/02 06:45:00;;;;;;;3.47;3.13;;;18.30;99.90;;;;;;5035044;28;20488;-58
2023/08/02 06:47:28;;;;;;;2.40;2.20;;;18.60;99.90;;;;;;5035777;28;20457;-59
2023/08/02 06:49:55;;;;;;;3.07;2.77;;;;;;;;;;5015850;28;20445;-58
2023/08/02 06:52:22;;;;;;;3.43;2.67;;;;;;;;;;5014730;28;20444;-62
2023/08/02 06:54:53;;;;;;;3.33;2.30;;;18.60;99.90;;;;;;5015187;28;20528;-62
2023/08/02 06:57:22;;;;;;;2.80;2.37;;;19.00;99.90;;;;;;5033686;28;20429;-53
2023/08/02 06:59:55;;;;;;;8.40;2.50;;;19.00;99.90;;;;;;5037819;28;20464;-51
2023/08/02 07:02:22;;;;;;;5.53;3.03;;;;;;;;;;5021816;28;20918;-60
2023/08/02 07:04:51;;;;;;;4.20;2.90;;;19.20;99.90;;;;;;5019323;28;20836;-62
2023/08/02 07:07:18;;;;;;;3.43;2.90;;;;;;;;;;5027284;28;20984;-61
2023/08/02 07:09:48;;;;;;;7.43;2.80;;;19.40;99.90;;;;;;5025909;28;20444;-59
2023/08/02 07:12:15;;;;;;;2.73;2.40;;;19.50;99.90;;;;;;5026287;28;20453;-50
2023/08/02 07:14:42;;;;;;;6.40;3.90;;;;;;;;;;5020066;28;20739;-61
2023/08/02 07:17:09;;;;;;;9.43;4.10;;;19.60;99.90;;;;;;5015042;28;20445;-63
2023/08/02 07:19:36;;;;;;;2.93;2.63;;;;;;;;;;5014646;28;20441;-62
2023/08/02 07:22:06;;;;;;;4.43;2.43;;;19.60;99.90;;;;;;5014783;28;20540;-62
2023/08/02 07:24:32;;;;;;;3.93;2.43;;;19.40;99.90;;;;;;5014384;28;20485;-62
2023/08/02 07:27:00;;;;;;;2.27;2.07;;;;;;;;;;5014256;28;20449;-61
2023/08/02 07:29:27;;;;;;;2.20;2.00;;;21.70;99.90;;;;;;5014602;28;20468;-63
2023/08/02 07:31:54;;;;;;;3.27;1.80;;;23.50;99.90;;;;;;5035948;28;20429;-47
2023/08/02 07:34:20;;;;;;;3.93;1.73;;;24.10;99.90;;;;;;5036944;28;20472;-58
2023/08/02 07:36:48;;;;;;;3.93;2.00;;;24.00;99.90;;;;;;5025228;28;20473;-64
2023/08/02 07:39:16;;;;;;;4.03;1.73;;;23.60;99.90;;;;;;5014103;28;20537;-62
2023/08/02 07:41:43;;;;;;;2.70;1.83;;;23.10;99.90;;;;;;5014330;28;20441;-63
2023/08/02 07:44:10;;;;;;;5.90;2.50;;;23.20;99.90;;;;;;5016912;28;20473;-63
2023/08/02 07:46:37;;;;;;;2.80;2.03;;;23.70;99.90;;;;;;5014506;28;20572;-64
2023/08/02 07:49:04;;;;;;;2.90;1.77;;;24.60;99.90;;;;;;5014038;28;20461;-63
2023/08/02 07:51:30;;;;;;;3.40;1.90;;;25.50;99.90;;;;;;5014569;28;20441;-63
2023/08/02 07:53:57;;;;;;;4.13;2.30;;;;;;;;;;5014485;28;20549;-62
2023/08/02 07:56:25;;;;;;;2.17;1.97;;;;;;;;;;5016684;28;20433;-61
2023/08/02 07:58:52;;;;;;;5.40;2.03;;;30.00;99.90;;;;;;5020636;28;20539;-62
2023/08/02 08:01:19;;;;;;;3.90;2.30;;;;;;;;;;5019273;28;20543;-64
2023/08/02 08:03:46;;;;;;;4.53;2.13;;;29.90;99.90;;;;;;5017623;28;20488;-62
2023/08/02 08:06:15;;;;;;;2.27;1.67;;;30.50;99.90;;;;;;5017481;28;20775;-62
2023/08/02 08:08:42;;;;;;;2.20;1.73;;;30.90;99.90;;;;;;5017785;28;20445;-63
2023/08/02 08:11:09;;;;;;;5.20;1.87;;;30.90;99.50;;;;;;5017273;28;20564;-62
2023/08/02 08:13:40;;;;;;;3.00;1.50;;;31.20;95.10;;;;;;5020981;28;20429;-51
2023/08/02 08:16:10;;;;;;;4.43;2.50;;;31.30;95.90;;;;;;5040768;28;20409;-48
2023/08/02 08:18:37;;;;;;;5.33;2.53;;;31.10;97.80;;;;;;5021814;28;20425;-63
2023/08/02 08:21:05;;;;;;;2.57;1.80;;;30.90;68.80;;;;;;5017526;28;20445;-61
2023/08/02 08:23:32;;;;;;;5.47;2.83;;;31.00;93.30;;;;;;5017708;28;20445;-62
2023/08/02 08:25:59;;;;;;;3.83;1.97;;;31.10;96.40;;;;;;5016631;28;20547;-63
2023/08/02 08:28:26;;;;;;;2.87;1.60;;;31.00;96.70;;;;;;5017439;28;20559;-62
2023/08/02 08:31:00;;;;;;;1.80;1.57;;;31.10;95.90;;;;;;5017148;28;20504;-62
2023/08/02 08:33:27;;;;;;;1.83;1.50;;;;;;;;;;5017275;28;20555;-62
2023/08/02 08:35:54;;;;;;;3.10;1.97;;;;;;;;;;5017000;28;20446;-65
2023/08/02 08:38:23;;;;;;;5.83;1.87;;;31.70;94.30;;;;;;5026684;28;20437;-52
2023/08/02 08:40:53;;;;;;;3.17;1.60;;;31.10;90.10;;;;;;5038531;28;20433;-65
2023/08/02 08:43:20;;;;;;;5.90;2.13;;;;;;;;;;5020794;28;20532;-64
2023/08/02 08:45:47;;;;;;;2.67;1.80;;;;;;;;;;5020297;28;20491;-60
2023/08/02 08:48:16;;;;;;;1.67;1.57;;;29.80;93.90;;;;;;5019239;28;20961;-64
2023/08/02 08:50:45;;;;;;;4.60;1.93;;;30.30;95.90;;;;;;5017491;28;20501;-60
2023/08/02 08:53:18;;;;;;;3.57;1.90;;;30.20;95.90;;;;;;5016612;28;20437;-64
2023/08/02 08:55:48;;;;;;;1.47;1.30;;;30.10;96.00;;;;;;5016938;28;20544;-59
2023/08/02 08:58:16;;;;;;;3.00;1.70;;;30.10;93.50;;;;;;5031512;28;20473;-62
2023/08/02 09:00:44;;;;;;;2.17;1.50;;;29.70;93.00;;;;;;5026221;28;20426;-64
2023/08/02 09:03:13;;;;;;;2.70;1.83;;;29.80;91.70;;;;;;5022473;28;20432;-64
2023/08/02 09:05:42;;;;;;;3.10;1.30;;;29.30;63.50;;;;;;5024944;28;20567;-63
2023/08/02 09:08:10;;;;;;;2.80;1.57;;;;;;;;;;5017102;28;20450;-63
2023/08/02 09:10:38;;;;;;;2.07;1.43;;;30.00;93.50;;;;;;4996746;28;20523;-60
2023/08/02 09:13:05;;;;;;;2.53;1.50;;;30.00;61.30;;;;;;4996941;28;20473;-64
2023/08/02 09:15:32;;;;;;;2.80;1.43;;;30.50;93.60;;;;;;4997033;28;20533;-62
2023/08/02 09:17:59;;;;;;;2.93;1.30;;;30.70;93.10;;;;;;4996833;28;20462;-64
2023/08/02 09:20:28;;;;;;;2.27;1.40;;;31.10;59.60;;;;;;4996589;28;20447;-64
2023/08/02 09:22:56;;;;;;;3.60;1.77;;;31.10;60.20;;;;;;4996607;28;20894;-64
2023/08/02 09:25:24;;;;;;;2.27;1.57;;;30.80;88.60;;;;;;4996386;28;20513;-62
2023/08/02 09:27:52;;;;;;;3.93;1.60;;;30.20;61.00;;;;;;5011259;28;20485;-60
2023/08/02 09:30:29;;;;;;;4.30;1.40;;;29.50;70.70;;;;;;5000756;28;20482;-63
2023/08/02 09:33:01;;;;;;;2.13;1.60;;;28.70;63.60;;;;;;5001546;28;20488;-62
2023/08/02 09:35:29;;;;;;;2.80;1.67;;;;;;;;;;4999936;28;20826;-64
2023/08/02 09:37:57;;;;;;;2.47;1.93;;;29.70;95.30;;;;;;5009020;28;20493;-64
2023/08/02 09:40:35;;;;;;;2.37;1.73;;;30.50;93.90;;;;;;5016104;28;20851;-63
2023/08/02 09:43:03;;;;;;;3.27;1.63;;;30.40;88.90;;;;;;5030903;28;20449;-64
2023/08/02 09:45:34;;;;;;;4.70;1.90;;;29.30;95.10;;;;;;5016627;28;20485;-56
2023/08/02 09:48:01;;;;;;;10.40;7.20;;;28.50;92.80;;;;;;5034581;28;20421;-65
2023/08/02 09:50:29;;;;;;;3.43;2.13;;;;;;;;;;5024475;28;20480;-65
2023/08/02 09:52:57;;;;;;;3.40;1.67;;;;;;;;;;5018697;28;20914;-63
2023/08/02 09:55:24;;;;;;;3.90;1.70;;;27.60;98.00;;;;;;5015876;28;20525;-64
2023/08/02 09:57:51;;;;;;;4.67;1.93;;;27.30;99.40;;;;;;5016641;28;20508;-61
2023/08/02 10:00:19;;;;;;;4.70;1.60;;;26.40;99.90;;;;;;5039026;28;20433;-52
2023/08/02 10:02:48;;;;;;;3.30;1.80;;;27.40;99.90;;;;;;5035854;28;20465;-57
2023/08/02 10:05:17;;;;;;;4.53;1.63;;;28.20;74.90;;;;;;5026310;28;20429;-51
2023/08/02 10:07:47;;;;;;;7.70;2.13;;;28.30;74.20;;;;;;5024107;28;20503;-63
2023/08/02 10:10:19;;;;;;;2.67;1.93;;;28.10;99.60;;;;;;5029668;28;20447;-64
2023/08/02 10:12:49;;;;;;;2.23;1.70;;;27.90;99.90;;;;;;5015255;28;20887;-64
2023/08/02 10:15:17;;;;;;;2.97;1.53;;;;;;;;;;5016908;28;20537;-53
2023/08/02 10:17:44;;;;;;;3.17;2.27;;;27.70;97.10;;;;;;5038774;28;20410;-49
2023/08/02 10:20:13;;;;;;;1.90;1.47;;;27.90;99.90;;;;;;5037238;28;20457;-63
2023/08/02 10:22:41;;;;;;;3.03;1.70;;;29.00;77.90;;;;;;5019543;28;20537;-63
2023/08/02 10:25:13;;;;;;;2.20;1.60;;;28.60;99.10;;;;;;5021313;28;20469;-48
2023/08/02 10:27:42;;;;;;;2.73;1.83;;;27.80;75.60;;;;;;5027017;28;20433;-63
2023/08/02 10:30:11;;;;;;;4.90;3.40;;;27.10;99.90;;;;;;5022980;28;20484;-62
2023/08/02 10:32:37;;;;;;;1.50;1.33;;;26.60;99.90;;;;;;5019408;28;20441;-61
2023/08/02 10:35:05;;;;;;;1.67;1.40;;;25.80;95.10;;;;;;5018005;28;20544;-61
2023/08/02 10:37:53;;;;;;;5.57;3.67;;;26.10;99.90;;;;;;5025701;28;20443;-50
2023/08/02 10:40:22;;;;;;;2.80;2.27;;;;;;;;;;5026563;28;20441;-64
2023/08/02 10:43:07;;;;;;;3.00;1.87;;;27.60;99.90;;;;;;5014790;28;20465;-67
2023/08/02 10:45:34;;;;;;;1.60;1.50;;;26.60;91.00;;;;;;5020406;28;20473;-61
2023/08/02 10:48:23;;;;;;;2.07;1.30;;;26.20;99.90;;;;;;5034622;28;20469;-60
2023/08/02 10:50:50;;;;;;;3.50;1.33;;;;;;;;;;5016161;28;20464;-64
2023/08/02 10:53:19;;;;;;;2.20;1.70;;;25.60;99.90;;;;;;5029980;28;20476;-52
2023/08/02 10:56:06;;;;;;;1.87;1.67;;;25.40;99.90;;;;;;5033635;28;20464;-65
2023/08/02 10:58:55;;;;;;;2.57;2.37;;;25.40;98.60;;;;;;5017590;28;20459;-49
2023/08/02 11:01:22;;;;;;;2.10;1.70;;;25.70;99.90;;;;;;5033077;28;20445;-65
2023/08/02 11:03:49;;;;;;;2.40;1.87;;;;;;;;;;5018664;28;20488;-64
2023/08/02 11:06:29;;;;;;;3.87;2.03;;;25.10;99.90;;;;;;5014487;28;20513;-66
2023/08/02 11:08:56;;;;;;;5.13;2.77;;;;;;;;;;5014576;28;20854;-64
2023/08/02 11:11:36;;;;;;;2.23;1.80;;;24.50;99.90;;;;;;5014729;28;20483;-63
2023/08/02 11:14:05;;;;;;;1.87;1.60;;;24.10;99.90;;;;;;5036497;28;20463;-49
2023/08/02 11:16:39;;;;;;;3.00;2.00;;;23.90;99.90;;;;;;5031869;28;20473;-65
2023/08/02 11:19:11;;;;;;;3.67;1.97;;;23.70;99.90;;;;;;5024962;28;20435;-48
2023/08/02 11:21:39;;;;;;;3.67;1.73;;;;;;;;;;5034814;28;20476;-59
2023/08/02 11:24:06;;;;;;;2.90;2.00;;;;;;;;;;5015399;28;20531;-64
2023/08/02 11:26:35;;;;;;;2.93;1.80;;;23.50;99.90;;;;;;5030298;28;20507;-53
2023/08/02 11:29:07;;;;;;;1.90;1.70;;;23.70;99.90;;;;;;5015194;28;20862;-61
2023/08/02 11:31:36;;;;;;;3.30;2.40;;;23.20;99.90;;;;;;5029584;28;20993;-65
2023/08/02 11:34:05;;;;;;;4.00;2.17;;;23.40;99.90;;;;;;5019433;28;20956;-64
2023/08/02 11:36:33;;;;;;;4.63;2.30;;;23.40;99.90;;;;;;5030862;28;20448;-62
2023/08/02 11:39:01;;;;;;;2.33;1.90;;;23.30;99.90;;;;;;5036856;28;20552;-51
2023/08/02 11:41:28;;;;;;;2.57;2.30;;;;;;;;;;5041220;28;20413;-61
2023/08/02 11:43:55;;;;;;;5.00;2.53;;;23.20;99.90;;;;;;5028648;28;20464;-64
2023/08/02 11:46:25;;;;;;;2.37;2.00;;;23.40;99.90;;;;;;5017704;28;20567;-62
2023/08/02 11:48:59;;;;;;;3.40;1.97;;;;;;;;;;5018030;28;20475;-63
2023/08/02 11:51:26;;;;;;;5.13;4.70;;;23.10;99.90;;;;;;5017784;28;20464;-65
2023/08/02 11:53:55;;;;;;;2.57;2.30;;;23.40;99.90;;;;;;5017709;28;20965;-65
2023/08/02 11:56:23;;;;;;;5.03;1.80;;;23.40;99.90;;;;;;5017695;28;20485;-65
2023/08/02 11:58:51;;;;;;;4.70;2.50;;;23.50;99.90;;;;;;5017641;28;20836;-63
2023/08/02 12:01:19;;;;;;;2.33;2.10;;;23.50;99.90;;;;;;5018222;28;20799;-63
2023/08/02 12:03:57;;;;;;;4.53;2.27;;;23.70;99.90;;;;;;5020902;28;20502;-64
2023/08/02 12:06:25;;;;;;;3.83;2.53;;;23.50;99.90;;;;;;5017557;28;20488;-64
2023/08/02 12:08:53;;;;;;;2.60;2.20;;;23.50;99.90;;;;;;5017457;28;20441;-65
2023/08/02 12:11:21;;;;;;;4.80;2.07;;;23.20;99.90;;;;;;5022266;28;20526;-63
2023/08/02 12:13:48;;;;;;;6.03;2.00;;;23.40;99.90;;;;;;5027231;28;20555;-60
2023/08/02 12:16:16;;;;;;;6.93;4.00;;;24.30;99.90;;;;;;5025807;28;20442;-63
2023/08/02 12:18:57;;;;;;;6.23;3.60;;;23.30;99.90;;;;;;5023489;28;20453;-64
2023/08/02 12:21:25;;;;;;;3.57;2.67;;;23.70;99.90;;;;;;5013983;28;20469;-66
2023/08/02 12:23:53;;;;;;;4.20;2.83;;;23.80;99.90;;;;;;5003781;28;20450;-62
2023/08/02 12:26:32;;;;;;;3.53;2.93;;;23.70;99.90;;;;;;5001397;28;20568;-64
2023/08/02 12:29:01;;;;;;;3.23;2.50;;;24.00;99.90;;;;;;5031774;28;20827;-65
2023/08/02 12:31:27;;;;;;;4.60;2.37;;;24.00;99.90;;;;;;5017178;28;20542;-64
2023/08/02 12:33:56;;;;;;;4.50;2.60;;;24.00;99.90;;;;;;5018160;28;20548;-63
2023/08/02 12:36:27;;;;;;;3.50;2.00;;;24.00;99.90;;;;;;5020038;28;20464;-62
2023/08/02 12:38:55;;;;;;;8.13;2.80;;;24.10;99.90;;;;;;5017590;28;20524;-60
2023/08/02 12:41:22;;;;;;;5.93;2.43;;;;;;;;;;5017164;28;20512;-64
2023/08/02 12:43:49;;;;;;;2.60;2.07;;;23.60;99.90;;;;;;5034395;28;20433;-59
2023/08/02 12:46:16;;;;;;;3.10;2.30;;;23.60;99.90;;;;;;5030889;28;20527;-60
2023/08/02 12:48:44;;;;;;;4.13;2.40;;;23.40;99.90;;;;;;5023068;28;20460;-64
2023/08/02 12:51:12;;;;;;;2.73;2.03;;;23.60;99.90;;;;;;5017394;28;20515;-67
2023/08/02 12:53:39;;;;;;;6.23;2.10;;;23.20;99.90;;;;;;5016961;28;20457;-64
2023/08/02 12:56:06;;;;;;;3.97;2.37;;;23.40;99.90;;;;;;5016619;28;20933;-62
2023/08/02 12:58:33;;;;;;;4.03;2.33;;;23.40;99.90;;;;;;5016632;28;20452;-65
2023/08/02 13:01:00;;;;;;;2.80;2.57;;;23.60;99.90;;;;;;5025903;28;20473;-49
2023/08/02 13:03:27;;;;;;;3.00;2.40;;;23.60;99.90;;;;;;5030183;28;20492;-66
2023/08/02 13:05:54;;;;;;;3.13;2.50;;;23.50;99.90;;;;;;5016469;28;20840;-66
2023/08/02 13:08:22;;;;;;;2.50;2.30;;;23.40;99.90;;;;;;5032969;28;20473;-67
2023/08/02 13:10:49;;;;;;;6.40;2.50;;;23.50;99.90;;;;;;5020479;28;20535;-60
2023/08/02 13:13:16;;;;;;;5.90;3.40;;;23.60;99.90;;;;;;5008085;28;20549;-63